sensor_id;sensor_type;location;lat;lon;timestamp;temperature;humidity
46562;DHT22;32289;42.688;23.330;2023-08-07T00:03:17;17.80;99.30
46562;DHT22;32289;42.688;23.330;2023-08-07T00:06:59;17.80;99.70
46562;DHT22;32289;42.688;23.330;2023-08-07T00:10:42;17.80;99.40
46562;DHT22;32289;42.688;23.330;2023-08-07T00:14:23;17.70;99.90
46562;DHT22;32289;42.688;23.330;2023-08-07T00:18:03;17.80;99.90
46562;DHT22;32289;42.688;23.330;2023-08-07T00:21:44;17.90;99.10
46562;DHT22;32289;42.688;23.330;2023-08-07T00:25:25;17.90;98.80
46562;DHT22;32289;42.688;23.330;2023-08-07T00:29:07;18.00;98.60
46562;DHT22;32289;42.688;23.330;2023-08-07T00:32:48;17.70;99.60
46562;DHT22;32289;42.688;23.330;2023-08-07T00:36:29;17.70;99.70
46562;DHT22;32289;42.688;23.330;2023-08-07T00:40:10;17.40;99.90
46562;DHT22;32289;42.688;23.330;2023-08-07T00:43:51;17.40;99.90
46562;DHT22;32289;42.688;23.330;2023-08-07T00:47:31;17.40;99.90
46562;DHT22;32289;42.688;23.330;2023-08-07T00:51:12;17.60;99.90
46562;DHT22;32289;42.688;23.330;2023-08-07T00:54:53;17.60;99.90
46562;DHT22;32289;42.688;23.330;2023-08-07T00:58:36;17.50;99.90
46562;DHT22;32289;42.688;23.330;2023-08-07T01:02:17;17.50;99.90
46562;DHT22;32289;42.688;23.330;2023-08-07T01:05:58;17.40;99.90
46562;DHT22;32289;42.688;23.330;2023-08-07T01:09:39;17.30;99.90
46562;DHT22;32289;42.688;23.330;2023-08-07T01:13:28;17.30;99.90
46562;DHT22;32289;42.688;23.330;2023-08-07T01:17:17;17.10;99.90
46562;DHT22;32289;42.688;23.330;2023-08-07T01:21:00;16.90;99.90
46562;DHT22;32289;42.688;23.330;2023-08-07T01:24:46;16.80;99.90
46562;DHT22;32289;42.688;23.330;2023-08-07T01:28:32;16.90;99.90
46562;DHT22;32289;42.688;23.330;2023-08-07T01:32:20;17.00;99.90
46562;DHT22;32289;42.688;23.330;2023-08-07T01:36:05;17.00;99.90
46562;DHT22;32289;42.688;23.330;2023-08-07T01:39:48;16.90;99.90
46562;DHT22;32289;42.688;23.330;2023-08-07T01:43:30;17.00;99.90
46562;DHT22;32289;42.688;23.330;2023-08-07T01:47:13;16.90;99.90
46562;DHT22;32289;42.688;23.330;2023-08-07T01:50:54;16.90;99.90
46562;DHT22;32289;42.688;23.330;2023-08-07T01:54:35;16.90;99.90
46562;DHT22;32289;42.688;23.330;2023-08-07T01:58:16;17.00;99.90
46562;DHT22;32289;42.688;23.330;2023-08-07T02:01:57;17.10;99.90
46562;DHT22;32289;42.688;23.330;2023-08-07T02:05:37;17.00;99.90
46562;DHT22;32289;42.688;23.330;2023-08-07T02:09:18;16.90;99.90
46562;DHT22;32289;42.688;23.330;2023-08-07T02:12:59;17.00;99.90
46562;DHT22;32289;42.688;23.330;2023-08-07T02:16:39;16.90;99.90
46562;DHT22;32289;42.688;23.330;2023-08-07T02:20:20;17.10;99.90
46562;DHT22;32289;42.688;23.330;2023-08-07T02:24:01;17.00;99.90
46562;DHT22;32289;42.688;23.330;2023-08-07T02:27:42;17.00;99.90
46562;DHT22;32289;42.688;23.330;2023-08-07T02:31:22;16.90;99.90
46562;DHT22;32289;42.688;23.330;2023-08-07T02:35:03;16.80;99.90
46562;DHT22;32289;42.688;23.330;2023-08-07T02:38:44;16.70;99.90
46562;DHT22;32289;42.688;23.330;2023-08-07T02:42:25;16.70;99.90
46562;DHT22;32289;42.688;23.330;2023-08-07T02:46:05;16.70;99.90
46562;DHT22;32289;42.688;23.330;2023-08-07T02:49:46;16.70;99.90
46562;DHT22;32289;42.688;23.330;2023-08-07T02:53:29;16.70;99.90
46562;DHT22;32289;42.688;23.330;2023-08-07T02:57:10;16.80;99.90
46562;DHT22;32289;42.688;23.330;2023-08-07T03:00:50;16.60;99.90
46562;DHT22;32289;42.688;23.330;2023-08-07T03:04:31;16.60;99.90
46562;DHT22;32289;42.688;23.330;2023-08-07T03:08:12;16.60;99.90
46562;DHT22;32289;42.688;23.330;2023-08-07T03:11:52;16.60;99.90
46562;DHT22;32289;42.688;23.330;2023-08-07T03:15:35;16.70;99.90
46562;DHT22;32289;42.688;23.330;2023-08-07T03:19:16;16.60;99.90
46562;DHT22;32289;42.688;23.330;2023-08-07T03:22:57;16.70;99.90
46562;DHT22;32289;42.688;23.330;2023-08-07T03:26:37;16.60;99.90
46562;DHT22;32289;42.688;23.330;2023-08-07T03:30:18;16.70;99.90
46562;DHT22;32289;42.688;23.330;2023-08-07T03:33:59;16.70;99.90
46562;DHT22;32289;42.688;23.330;2023-08-07T03:37:42;16.70;99.90
46562;DHT22;32289;42.688;23.330;2023-08-07T03:41:22;16.80;99.90
46562;DHT22;32289;42.688;23.330;2023-08-07T03:45:03;16.70;99.90
46562;DHT22;32289;42.688;23.330;2023-08-07T03:48:44;16.70;99.90
46562;DHT22;32289;42.688;23.330;2023-08-07T03:52:25;16.80;99.90
46562;DHT22;32289;42.688;23.330;2023-08-07T03:56:05;16.90;99.90
46562;DHT22;32289;42.688;23.330;2023-08-07T03:59:46;16.80;99.90
46562;DHT22;32289;42.688;23.330;2023-08-07T04:03:27;16.70;99.90
46562;DHT22;32289;42.688;23.330;2023-08-07T04:07:08;16.60;99.90
46562;DHT22;32289;42.688;23.330;2023-08-07T04:10:59;16.70;99.90
46562;DHT22;32289;42.688;23.330;2023-08-07T04:14:40;16.70;99.90
46562;DHT22;32289;42.688;23.330;2023-08-07T04:18:23;16.70;99.90
46562;DHT22;32289;42.688;23.330;2023-08-07T04:22:04;16.90;99.90
46562;DHT22;32289;42.688;23.330;2023-08-07T04:25:46;16.90;99.90
46562;DHT22;32289;42.688;23.330;2023-08-07T04:29:27;16.80;99.90
46562;DHT22;32289;42.688;23.330;2023-08-07T04:33:08;17.00;99.90
46562;DHT22;32289;42.688;23.330;2023-08-07T04:36:49;17.20;99.90
46562;DHT22;32289;42.688;23.330;2023-08-07T04:40:32;17.10;99.90
46562;DHT22;32289;42.688;23.330;2023-08-07T04:44:13;17.00;99.90
46562;DHT22;32289;42.688;23.330;2023-08-07T04:47:54;17.10;99.90
46562;DHT22;32289;42.688;23.330;2023-08-07T04:51:34;17.20;99.90
46562;DHT22;32289;42.688;23.330;2023-08-07T04:55:15;17.20;99.90
46562;DHT22;32289;42.688;23.330;2023-08-07T04:58:58;17.20;99.90
46562;DHT22;32289;42.688;23.330;2023-08-07T05:02:41;17.40;99.90
46562;DHT22;32289;42.688;23.330;2023-08-07T05:06:22;17.90;99.90
46562;DHT22;32289;42.688;23.330;2023-08-07T05:10:05;20.20;93.00
46562;DHT22;32289;42.688;23.330;2023-08-07T05:13:46;21.10;85.20
46562;DHT22;32289;42.688;23.330;2023-08-07T05:17:27;21.50;80.90
46562;DHT22;32289;42.688;23.330;2023-08-07T05:21:07;21.80;79.20
46562;DHT22;32289;42.688;23.330;2023-08-07T05:24:49;22.20;75.60
46562;DHT22;32289;42.688;23.330;2023-08-07T05:28:30;22.60;72.20
46562;DHT22;32289;42.688;23.330;2023-08-07T05:32:12;23.00;70.20
46562;DHT22;32289;42.688;23.330;2023-08-07T05:35:53;22.70;71.00
46562;DHT22;32289;42.688;23.330;2023-08-07T05:39:35;22.90;72.20
46562;DHT22;32289;42.688;23.330;2023-08-07T05:43:17;22.70;71.90
46562;DHT22;32289;42.688;23.330;2023-08-07T05:46:58;21.30;75.00
46562;DHT22;32289;42.688;23.330;2023-08-07T05:50:41;21.10;77.90
46562;DHT22;32289;42.688;23.330;2023-08-07T05:54:21;20.30;80.30
46562;DHT22;32289;42.688;23.330;2023-08-07T05:58:02;20.70;81.20
46562;DHT22;32289;42.688;23.330;2023-08-07T06:01:43;21.00;79.80
46562;DHT22;32289;42.688;23.330;2023-08-07T06:05:23;21.00;80.20
46562;DHT22;32289;42.688;23.330;2023-08-07T06:09:05;21.70;77.40
46562;DHT22;32289;42.688;23.330;2023-08-07T06:12:46;21.10;78.90
46562;DHT22;32289;42.688;23.330;2023-08-07T06:16:27;21.10;78.60
46562;DHT22;32289;42.688;23.330;2023-08-07T06:20:08;21.10;76.90
46562;DHT22;32289;42.688;23.330;2023-08-07T06:23:50;21.60;75.70
46562;DHT22;32289;42.688;23.330;2023-08-07T06:27:31;22.60;73.50
46562;DHT22;32289;42.688;23.330;2023-08-07T06:31:12;22.80;72.80
46562;DHT22;32289;42.688;23.330;2023-08-07T06:34:53;21.90;71.40
46562;DHT22;32289;42.688;23.330;2023-08-07T06:38:34;22.90;71.80
46562;DHT22;32289;42.688;23.330;2023-08-07T06:42:14;22.10;72.50
46562;DHT22;32289;42.688;23.330;2023-08-07T06:45:56;24.20;69.00
46562;DHT22;32289;42.688;23.330;2023-08-07T06:49:37;23.40;64.50
46562;DHT22;32289;42.688;23.330;2023-08-07T06:53:18;23.00;66.10
46562;DHT22;32289;42.688;23.330;2023-08-07T06:56:59;23.20;64.10
46562;DHT22;32289;42.688;23.330;2023-08-07T07:00:40;22.60;63.00
46562;DHT22;32289;42.688;23.330;2023-08-07T07:04:20;22.50;65.80
46562;DHT22;32289;42.688;23.330;2023-08-07T07:08:01;23.00;62.90
46562;DHT22;32289;42.688;23.330;2023-08-07T07:11:43;23.40;64.30
46562;DHT22;32289;42.688;23.330;2023-08-07T07:15:24;24.60;58.90
46562;DHT22;32289;42.688;23.330;2023-08-07T07:19:05;25.80;56.30
46562;DHT22;32289;42.688;23.330;2023-08-07T07:22:48;25.60;56.80
46562;DHT22;32289;42.688;23.330;2023-08-07T07:26:29;25.30;55.80
46562;DHT22;32289;42.688;23.330;2023-08-07T07:30:12;24.20;56.90
46562;DHT22;32289;42.688;23.330;2023-08-07T07:33:53;25.30;57.70
46562;DHT22;32289;42.688;23.330;2023-08-07T07:37:34;24.20;59.30
46562;DHT22;32289;42.688;23.330;2023-08-07T07:41:15;23.60;58.40
46562;DHT22;32289;42.688;23.330;2023-08-07T07:44:56;24.30;57.60
46562;DHT22;32289;42.688;23.330;2023-08-07T07:48:37;24.30;57.60
46562;DHT22;32289;42.688;23.330;2023-08-07T07:52:20;24.50;57.90
46562;DHT22;32289;42.688;23.330;2023-08-07T07:56:01;27.00;53.60
46562;DHT22;32289;42.688;23.330;2023-08-07T07:59:42;25.10;54.80
46562;DHT22;32289;42.688;23.330;2023-08-07T08:03:23;25.30;56.30
46562;DHT22;32289;42.688;23.330;2023-08-07T08:07:04;26.10;54.10
46562;DHT22;32289;42.688;23.330;2023-08-07T08:10:46;25.50;53.00
46562;DHT22;32289;42.688;23.330;2023-08-07T08:14:28;25.40;54.00
46562;DHT22;32289;42.688;23.330;2023-08-07T08:18:08;26.00;53.20
46562;DHT22;32289;42.688;23.330;2023-08-07T08:21:49;26.30;52.30
46562;DHT22;32289;42.688;23.330;2023-08-07T08:25:31;26.10;51.20
46562;DHT22;32289;42.688;23.330;2023-08-07T08:29:14;26.30;50.50
46562;DHT22;32289;42.688;23.330;2023-08-07T08:32:55;26.00;50.30
46562;DHT22;32289;42.688;23.330;2023-08-07T08:36:36;27.20;49.70
46562;DHT22;32289;42.688;23.330;2023-08-07T08:40:17;27.00;49.40
46562;DHT22;32289;42.688;23.330;2023-08-07T08:43:59;27.40;50.20
46562;DHT22;32289;42.688;23.330;2023-08-07T08:47:42;27.50;49.70
46562;DHT22;32289;42.688;23.330;2023-08-07T08:51:26;27.60;49.20
46562;DHT22;32289;42.688;23.330;2023-08-07T08:55:08;28.70;48.70
46562;DHT22;32289;42.688;23.330;2023-08-07T08:58:50;28.60;46.60
46562;DHT22;32289;42.688;23.330;2023-08-07T09:02:31;28.80;45.60
46562;DHT22;32289;42.688;23.330;2023-08-07T09:06:13;30.30;45.70
46562;DHT22;32289;42.688;23.330;2023-08-07T09:09:54;29.30;45.20
46562;DHT22;32289;42.688;23.330;2023-08-07T09:13:38;29.70;45.00
46562;DHT22;32289;42.688;23.330;2023-08-07T09:17:21;30.70;43.90
46562;DHT22;32289;42.688;23.330;2023-08-07T09:21:04;30.10;43.40
46562;DHT22;32289;42.688;23.330;2023-08-07T09:24:45;30.60;44.60
46562;DHT22;32289;42.688;23.330;2023-08-07T09:28:26;30.10;44.20
46562;DHT22;32289;42.688;23.330;2023-08-07T09:32:13;30.80;44.50
46562;DHT22;32289;42.688;23.330;2023-08-07T09:36:01;31.00;43.10
46562;DHT22;32289;42.688;23.330;2023-08-07T09:39:42;30.00;45.00
46562;DHT22;32289;42.688;23.330;2023-08-07T09:43:24;30.00;44.80
46562;DHT22;32289;42.688;23.330;2023-08-07T09:47:12;29.20;45.90
46562;DHT22;32289;42.688;23.330;2023-08-07T09:50:54;29.00;45.90
46562;DHT22;32289;42.688;23.330;2023-08-07T09:54:39;29.50;45.70
46562;DHT22;32289;42.688;23.330;2023-08-07T09:58:20;29.20;45.40
46562;DHT22;32289;42.688;23.330;2023-08-07T10:02:01;28.40;46.50
46562;DHT22;32289;42.688;23.330;2023-08-07T10:05:43;29.00;47.10
46562;DHT22;32289;42.688;23.330;2023-08-07T10:09:24;29.20;46.10
46562;DHT22;32289;42.688;23.330;2023-08-07T10:13:07;29.10;47.10
46562;DHT22;32289;42.688;23.330;2023-08-07T10:16:51;30.10;44.30
46562;DHT22;32289;42.688;23.330;2023-08-07T10:20:33;28.90;46.20
46562;DHT22;32289;42.688;23.330;2023-08-07T10:24:15;29.20;45.70
46562;DHT22;32289;42.688;23.330;2023-08-07T10:27:57;30.30;43.40
46562;DHT22;32289;42.688;23.330;2023-08-07T10:31:41;30.40;43.50
46562;DHT22;32289;42.688;23.330;2023-08-07T10:35:30;28.90;45.70
46562;DHT22;32289;42.688;23.330;2023-08-07T10:39:11;29.30;46.00
46562;DHT22;32289;42.688;23.330;2023-08-07T10:42:59;29.10;44.90
46562;DHT22;32289;42.688;23.330;2023-08-07T10:46:54;30.90;44.40
46562;DHT22;32289;42.688;23.330;2023-08-07T10:54:49;29.10;46.20
46562;DHT22;32289;42.688;23.330;2023-08-07T10:58:32;29.30;47.40
46562;DHT22;32289;42.688;23.330;2023-08-07T11:02:23;29.20;46.20
46562;DHT22;32289;42.688;23.330;2023-08-07T11:06:05;28.70;46.80
46562;DHT22;32289;42.688;23.330;2023-08-07T11:09:46;29.70;46.50
46562;DHT22;32289;42.688;23.330;2023-08-07T11:13:29;29.40;46.50
46562;DHT22;32289;42.688;23.330;2023-08-07T11:17:10;29.10;46.00
46562;DHT22;32289;42.688;23.330;2023-08-07T11:20:53;29.10;46.40
46562;DHT22;32289;42.688;23.330;2023-08-07T11:24:33;29.20;46.10
46562;DHT22;32289;42.688;23.330;2023-08-07T11:28:17;28.30;47.70
46562;DHT22;32289;42.688;23.330;2023-08-07T11:31:58;28.00;47.40
46562;DHT22;32289;42.688;23.330;2023-08-07T11:35:42;28.30;47.00
46562;DHT22;32289;42.688;23.330;2023-08-07T11:39:23;27.60;48.50
46562;DHT22;32289;42.688;23.330;2023-08-07T11:43:05;27.50;48.60
46562;DHT22;32289;42.688;23.330;2023-08-07T11:46:46;27.30;49.00
46562;DHT22;32289;42.688;23.330;2023-08-07T11:50:29;27.00;49.00
46562;DHT22;32289;42.688;23.330;2023-08-07T11:54:14;27.10;49.10
46562;DHT22;32289;42.688;23.330;2023-08-07T11:57:55;27.30;49.60
46562;DHT22;32289;42.688;23.330;2023-08-07T12:01:39;28.40;49.50
46562;DHT22;32289;42.688;23.330;2023-08-07T12:05:21;29.30;46.60
46562;DHT22;32289;42.688;23.330;2023-08-07T12:09:03;28.70;47.60
46562;DHT22;32289;42.688;23.330;2023-08-07T12:12:44;28.20;47.90
46562;DHT22;32289;42.688;23.330;2023-08-07T12:16:25;28.70;48.10
46562;DHT22;32289;42.688;23.330;2023-08-07T12:20:06;28.30;47.70
46562;DHT22;32289;42.688;23.330;2023-08-07T12:23:51;27.90;48.80
46562;DHT22;32289;42.688;23.330;2023-08-07T12:27:32;27.80;49.30
46562;DHT22;32289;42.688;23.330;2023-08-07T12:31:13;28.10;48.70
46562;DHT22;32289;42.688;23.330;2023-08-07T12:34:54;27.60;49.70
46562;DHT22;32289;42.688;23.330;2023-08-07T12:38:34;27.70;50.00
46562;DHT22;32289;42.688;23.330;2023-08-07T12:42:15;27.70;50.50
46562;DHT22;32289;42.688;23.330;2023-08-07T12:45:56;27.90;50.50
46562;DHT22;32289;42.688;23.330;2023-08-07T12:49:36;28.10;50.20
46562;DHT22;32289;42.688;23.330;2023-08-07T12:53:17;28.00;50.50
46562;DHT22;32289;42.688;23.330;2023-08-07T12:57:00;28.00;49.80
46562;DHT22;32289;42.688;23.330;2023-08-07T13:00:43;28.00;50.00
46562;DHT22;32289;42.688;23.330;2023-08-07T13:04:26;27.70;51.20
46562;DHT22;32289;42.688;23.330;2023-08-07T13:08:07;27.50;52.00
46562;DHT22;32289;42.688;23.330;2023-08-07T13:11:48;27.30;52.20
46562;DHT22;32289;42.688;23.330;2023-08-07T13:15:28;27.60;51.80
46562;DHT22;32289;42.688;23.330;2023-08-07T13:19:10;27.70;51.70
46562;DHT22;32289;42.688;23.330;2023-08-07T13:22:50;27.10;52.50
46562;DHT22;32289;42.688;23.330;2023-08-07T13:26:34;26.60;54.10
46562;DHT22;32289;42.688;23.330;2023-08-07T13:30:20;26.40;54.70
46562;DHT22;32289;42.688;23.330;2023-08-07T13:34:01;26.70;54.40
46562;DHT22;32289;42.688;23.330;2023-08-07T13:37:48;26.20;54.70
46562;DHT22;32289;42.688;23.330;2023-08-07T13:41:28;26.20;55.50
46562;DHT22;32289;42.688;23.330;2023-08-07T13:45:09;26.10;55.50
46562;DHT22;32289;42.688;23.330;2023-08-07T13:48:50;26.00;56.30
46562;DHT22;32289;42.688;23.330;2023-08-07T13:52:31;26.40;55.50
46562;DHT22;32289;42.688;23.330;2023-08-07T13:56:12;25.70;57.00
46562;DHT22;32289;42.688;23.330;2023-08-07T13:59:53;25.40;57.20
46562;DHT22;32289;42.688;23.330;2023-08-07T14:03:35;25.40;57.40
46562;DHT22;32289;42.688;23.330;2023-08-07T14:07:16;25.80;57.10
46562;DHT22;32289;42.688;23.330;2023-08-07T14:10:56;26.10;56.50
46562;DHT22;32289;42.688;23.330;2023-08-07T14:14:37;25.70;56.50
46562;DHT22;32289;42.688;23.330;2023-08-07T14:18:18;25.20;57.10
46562;DHT22;32289;42.688;23.330;2023-08-07T14:21:58;25.00;57.80
46562;DHT22;32289;42.688;23.330;2023-08-07T14:25:39;25.10;57.00
46562;DHT22;32289;42.688;23.330;2023-08-07T14:29:20;25.00;57.10
46562;DHT22;32289;42.688;23.330;2023-08-07T14:33:00;25.10;57.80
46562;DHT22;32289;42.688;23.330;2023-08-07T14:36:41;24.80;57.10
46562;DHT22;32289;42.688;23.330;2023-08-07T14:40:24;24.70;58.20
46562;DHT22;32289;42.688;23.330;2023-08-07T14:44:04;24.60;57.80
46562;DHT22;32289;42.688;23.330;2023-08-07T14:47:45;24.70;58.00
46562;DHT22;32289;42.688;23.330;2023-08-07T14:51:26;24.40;58.80
46562;DHT22;32289;42.688;23.330;2023-08-07T14:55:07;24.20;59.70
46562;DHT22;32289;42.688;23.330;2023-08-07T14:58:48;24.20;59.80
46562;DHT22;32289;42.688;23.330;2023-08-07T15:02:28;24.20;60.10
46562;DHT22;32289;42.688;23.330;2023-08-07T15:06:09;24.10;60.70
46562;DHT22;32289;42.688;23.330;2023-08-07T15:09:50;24.50;59.90
46562;DHT22;32289;42.688;23.330;2023-08-07T15:13:30;24.50;59.90
46562;DHT22;32289;42.688;23.330;2023-08-07T15:17:13;24.40;60.30
46562;DHT22;32289;42.688;23.330;2023-08-07T15:20:54;24.20;61.10
46562;DHT22;32289;42.688;23.330;2023-08-07T15:24:34;24.10;61.70
46562;DHT22;32289;42.688;23.330;2023-08-07T15:28:15;24.00;62.30
46562;DHT22;32289;42.688;23.330;2023-08-07T15:31:58;24.00;63.30
46562;DHT22;32289;42.688;23.330;2023-08-07T15:35:39;23.80;63.90
46562;DHT22;32289;42.688;23.330;2023-08-07T15:39:20;23.90;63.70
46562;DHT22;32289;42.688;23.330;2023-08-07T15:43:00;23.80;64.60
46562;DHT22;32289;42.688;23.330;2023-08-07T15:46:41;23.70;64.20
46562;DHT22;32289;42.688;23.330;2023-08-07T15:50:22;23.60;65.00
46562;DHT22;32289;42.688;23.330;2023-08-07T15:54:05;23.90;64.40
46562;DHT22;32289;42.688;23.330;2023-08-07T15:57:46;23.60;64.00
46562;DHT22;32289;42.688;23.330;2023-08-07T16:01:29;23.30;65.00
46562;DHT22;32289;42.688;23.330;2023-08-07T16:05:09;23.40;66.20
46562;DHT22;32289;42.688;23.330;2023-08-07T16:08:50;23.10;67.50
46562;DHT22;32289;42.688;23.330;2023-08-07T16:12:31;23.30;68.10
46562;DHT22;32289;42.688;23.330;2023-08-07T16:16:12;23.50;68.00
46562;DHT22;32289;42.688;23.330;2023-08-07T16:19:52;23.60;68.80
46562;DHT22;32289;42.688;23.330;2023-08-07T16:23:33;23.00;70.50
46562;DHT22;32289;42.688;23.330;2023-08-07T16:27:16;22.80;72.10
46562;DHT22;32289;42.688;23.330;2023-08-07T16:30:57;22.50;72.60
46562;DHT22;32289;42.688;23.330;2023-08-07T16:34:38;22.70;73.60
46562;DHT22;32289;42.688;23.330;2023-08-07T16:38:18;22.20;74.70
46562;DHT22;32289;42.688;23.330;2023-08-07T16:41:59;22.10;74.80
46562;DHT22;32289;42.688;23.330;2023-08-07T16:45:40;21.70;77.10
46562;DHT22;32289;42.688;23.330;2023-08-07T16:49:21;22.00;77.60
46562;DHT22;32289;42.688;23.330;2023-08-07T16:53:01;21.90;78.40
46562;DHT22;32289;42.688;23.330;2023-08-07T16:56:42;21.90;79.40
46562;DHT22;32289;42.688;23.330;2023-08-07T17:00:24;22.10;79.50
46562;DHT22;32289;42.688;23.330;2023-08-07T17:04:05;22.10;79.40
46562;DHT22;32289;42.688;23.330;2023-08-07T17:07:45;21.60;81.50
46562;DHT22;32289;42.688;23.330;2023-08-07T17:11:26;21.60;83.10
46562;DHT22;32289;42.688;23.330;2023-08-07T17:15:09;21.30;84.60
46562;DHT22;32289;42.688;23.330;2023-08-07T17:18:52;21.50;82.70
46562;DHT22;32289;42.688;23.330;2023-08-07T17:22:33;21.50;83.80
46562;DHT22;32289;42.688;23.330;2023-08-07T17:26:14;21.50;81.90
46562;DHT22;32289;42.688;23.330;2023-08-07T17:29:55;21.50;82.70
46562;DHT22;32289;42.688;23.330;2023-08-07T17:33:35;21.70;82.50
46562;DHT22;32289;42.688;23.330;2023-08-07T17:37:16;21.60;81.90
46562;DHT22;32289;42.688;23.330;2023-08-07T17:40:57;21.90;82.10
46562;DHT22;32289;42.688;23.330;2023-08-07T17:44:38;21.40;83.40
46562;DHT22;32289;42.688;23.330;2023-08-07T17:48:18;21.40;84.30
46562;DHT22;32289;42.688;23.330;2023-08-07T17:51:59;21.20;84.90
46562;DHT22;32289;42.688;23.330;2023-08-07T17:55:40;21.20;84.80
46562;DHT22;32289;42.688;23.330;2023-08-07T17:59:20;21.50;84.90
46562;DHT22;32289;42.688;23.330;2023-08-07T18:03:03;21.30;84.80
46562;DHT22;32289;42.688;23.330;2023-08-07T18:06:45;21.40;85.20
46562;DHT22;32289;42.688;23.330;2023-08-07T18:10:26;21.60;84.30
46562;DHT22;32289;42.688;23.330;2023-08-07T18:14:07;21.70;82.10
46562;DHT22;32289;42.688;23.330;2023-08-07T18:17:48;21.40;83.20
46562;DHT22;32289;42.688;23.330;2023-08-07T18:21:30;21.50;82.50
46562;DHT22;32289;42.688;23.330;2023-08-07T18:25:10;21.20;83.20
46562;DHT22;32289;42.688;23.330;2023-08-07T18:28:55;21.30;83.00
46562;DHT22;32289;42.688;23.330;2023-08-07T18:32:35;21.50;82.30
46562;DHT22;32289;42.688;23.330;2023-08-07T18:36:18;21.10;83.60
46562;DHT22;32289;42.688;23.330;2023-08-07T18:39:59;21.00;85.30
46562;DHT22;32289;42.688;23.330;2023-08-07T18:43:42;20.90;87.70
46562;DHT22;32289;42.688;23.330;2023-08-07T18:47:22;20.70;89.60
46562;DHT22;32289;42.688;23.330;2023-08-07T18:51:03;20.50;91.10
46562;DHT22;32289;42.688;23.330;2023-08-07T18:54:44;20.40;92.00
46562;DHT22;32289;42.688;23.330;2023-08-07T18:58:25;20.50;92.80
46562;DHT22;32289;42.688;23.330;2023-08-07T19:02:06;20.20;93.90
46562;DHT22;32289;42.688;23.330;2023-08-07T19:05:52;20.10;94.60
46562;DHT22;32289;42.688;23.330;2023-08-07T19:09:33;20.10;95.30
46562;DHT22;32289;42.688;23.330;2023-08-07T19:13:14;20.00;95.70
46562;DHT22;32289;42.688;23.330;2023-08-07T19:16:57;20.10;96.00
46562;DHT22;32289;42.688;23.330;2023-08-07T19:20:38;20.30;96.60
46562;DHT22;32289;42.688;23.330;2023-08-07T19:24:19;20.20;96.30
46562;DHT22;32289;42.688;23.330;2023-08-07T19:28:00;20.20;96.70
46562;DHT22;32289;42.688;23.330;2023-08-07T19:31:41;20.30;96.40
46562;DHT22;32289;42.688;23.330;2023-08-07T19:35:22;20.40;97.80
46562;DHT22;32289;42.688;23.330;2023-08-07T19:39:03;20.20;98.10
46562;DHT22;32289;42.688;23.330;2023-08-07T19:42:52;20.40;97.70
46562;DHT22;32289;42.688;23.330;2023-08-07T19:46:44;20.30;97.50
46562;DHT22;32289;42.688;23.330;2023-08-07T19:50:30;20.30;98.30
46562;DHT22;32289;42.688;23.330;2023-08-07T19:54:42;20.30;97.70
46562;DHT22;32289;42.688;23.330;2023-08-07T19:58:37;20.20;97.90
46562;DHT22;32289;42.688;23.330;2023-08-07T20:02:21;19.70;99.90
46562;DHT22;32289;42.688;23.330;2023-08-07T20:06:02;19.80;99.90
46562;DHT22;32289;42.688;23.330;2023-08-07T20:09:43;19.60;99.90
46562;DHT22;32289;42.688;23.330;2023-08-07T20:13:29;19.30;99.90
46562;DHT22;32289;42.688;23.330;2023-08-07T20:17:12;19.00;99.90
46562;DHT22;32289;42.688;23.330;2023-08-07T20:20:56;19.00;99.90
46562;DHT22;32289;42.688;23.330;2023-08-07T20:24:40;19.00;99.90
46562;DHT22;32289;42.688;23.330;2023-08-07T20:28:21;18.70;99.90
46562;DHT22;32289;42.688;23.330;2023-08-07T20:32:22;18.70;99.90
46562;DHT22;32289;42.688;23.330;2023-08-07T20:36:03;18.50;99.90
46562;DHT22;32289;42.688;23.330;2023-08-07T20:39:44;18.40;99.90
46562;DHT22;32289;42.688;23.330;2023-08-07T20:43:38;18.40;99.90
46562;DHT22;32289;42.688;23.330;2023-08-07T20:47:19;18.30;99.90
46562;DHT22;32289;42.688;23.330;2023-08-07T20:51:00;18.40;99.90
46562;DHT22;32289;42.688;23.330;2023-08-07T20:54:52;18.40;99.90
46562;DHT22;32289;42.688;23.330;2023-08-07T20:58:37;18.60;99.90
46562;DHT22;32289;42.688;23.330;2023-08-07T21:02:17;18.60;99.90
46562;DHT22;32289;42.688;23.330;2023-08-07T21:05:58;18.50;99.90
46562;DHT22;32289;42.688;23.330;2023-08-07T21:09:39;18.40;99.90
46562;DHT22;32289;42.688;23.330;2023-08-07T21:13:20;18.30;99.90
46562;DHT22;32289;42.688;23.330;2023-08-07T21:17:01;18.20;99.90
46562;DHT22;32289;42.688;23.330;2023-08-07T21:20:42;18.30;99.90
46562;DHT22;32289;42.688;23.330;2023-08-07T21:24:22;18.20;99.90
46562;DHT22;32289;42.688;23.330;2023-08-07T21:28:03;18.30;99.90
46562;DHT22;32289;42.688;23.330;2023-08-07T21:31:44;18.40;99.90
46562;DHT22;32289;42.688;23.330;2023-08-07T21:35:25;18.40;99.90
46562;DHT22;32289;42.688;23.330;2023-08-07T21:39:06;18.30;99.90
46562;DHT22;32289;42.688;23.330;2023-08-07T21:42:46;18.30;99.90
46562;DHT22;32289;42.688;23.330;2023-08-07T21:46:27;18.30;99.90
46562;DHT22;32289;42.688;23.330;2023-08-07T21:50:08;18.20;99.90
46562;DHT22;32289;42.688;23.330;2023-08-07T21:53:51;18.30;99.90
46562;DHT22;32289;42.688;23.330;2023-08-07T21:57:32;18.30;99.90
46562;DHT22;32289;42.688;23.330;2023-08-07T22:01:13;18.20;99.90
46562;DHT22;32289;42.688;23.330;2023-08-07T22:04:54;18.20;99.90
46562;DHT22;32289;42.688;23.330;2023-08-07T22:08:35;18.10;99.90
46562;DHT22;32289;42.688;23.330;2023-08-07T22:12:15;18.20;99.90
46562;DHT22;32289;42.688;23.330;2023-08-07T22:16:11;18.20;99.90
46562;DHT22;32289;42.688;23.330;2023-08-07T22:19:51;18.00;99.90
46562;DHT22;32289;42.688;23.330;2023-08-07T22:23:34;18.00;99.90
46562;DHT22;32289;42.688;23.330;2023-08-07T22:27:17;18.10;99.90
46562;DHT22;32289;42.688;23.330;2023-08-07T22:30:58;18.10;99.90
46562;DHT22;32289;42.688;23.330;2023-08-07T22:34:44;18.20;99.90
46562;DHT22;32289;42.688;23.330;2023-08-07T22:38:24;18.10;99.90
46562;DHT22;32289;42.688;23.330;2023-08-07T22:42:05;17.80;99.90
46562;DHT22;32289;42.688;23.330;2023-08-07T22:45:48;17.70;99.90
46562;DHT22;32289;42.688;23.330;2023-08-07T22:49:30;17.40;99.90
46562;DHT22;32289;42.688;23.330;2023-08-07T22:53:10;17.30;99.90
46562;DHT22;32289;42.688;23.330;2023-08-07T22:56:51;17.10;99.90
46562;DHT22;32289;42.688;23.330;2023-08-07T23:00:32;17.10;99.90
46562;DHT22;32289;42.688;23.330;2023-08-07T23:04:16;16.90;99.90